Time;durP1;ratioP1;P1;durP2;ratioP2;P2;SDS_P1;SDS_P2;PMS_P1;PMS_P2;Temp;Humidity;BMP_temperature;BMP_pressure;BME280_temperature;BME280_humidity;BME280_pressure;Samples;Min_cycle;Max_cycle;Signal;HPM_P1;HPM_P2
2022/05/01 00:01:08;;;;;;;;;1.00;1.00;;;;;;;;5209929;28;9697;-69
2022/05/01 00:03:40;;;;;;;;;9.80;9.80;;;;;;;;5226377;28;8806;-68
2022/05/01 00:06:12;;;;;;;;;1.00;1.00;;;;;;;;5226357;28;8790;-68
2022/05/01 00:08:43;;;;;;;;;1.00;1.00;;;;;;;;5209897;28;8848;-68
2022/05/01 00:11:13;;;;;;;;;0.75;0.75;;;;;;;;5210102;28;8801;-68
2022/05/01 00:13:47;;;;;;;;;0.00;0.00;;;;;;;;5223587;28;12199;-68
2022/05/01 00:16:18;;;;;;;;;4.00;4.00;;;;;;;;5194795;28;8829;-68
2022/05/01 00:18:49;;;;;;;;;2.00;2.00;;;;;;;;5209847;28;8786;-68
2022/05/01 00:21:20;;;;;;;;;31.20;30.40;;;;;;;;5209527;28;8818;-69
2022/05/01 00:23:51;;;;;;;;;4.00;4.00;;;;;;;;5210786;28;8788;-68
2022/05/01 00:26:22;;;;;;;;;2.00;2.00;;;;;;;;5205245;28;8831;-68
2022/05/01 00:28:55;;;;;;;;;1.00;1.00;;;;;;;;5205198;28;9563;-68
2022/05/01 00:31:25;;;;;;;;;0.00;0.00;;;;;;;;5205842;28;8808;-68
2022/05/01 00:36:46;;;;;;;;;1.00;1.00;;;;;;;;5223281;28;8793;-68
2022/05/01 00:39:35;;;;;;;;;1.00;1.00;;;;;;;;5227111;28;8801;-68
2022/05/01 00:42:08;;;;;;;;;1.00;1.00;;;;;;;;5226087;28;8814;-68
2022/05/01 00:44:39;;;;;;;;;1.00;1.00;;;;;;;;5209624;28;8813;-68
2022/05/01 00:47:11;;;;;;;;;1.00;1.00;;;;;;;;5227177;28;8762;-67
2022/05/01 00:49:42;;;;;;;;;1.00;1.00;;;;;;;;5209120;28;9579;-67
2022/05/01 00:52:14;;;;;;;;;1.60;1.60;;;;;;;;5225916;28;8805;-68
2022/05/01 00:54:47;;;;;;;;;1.80;1.80;;;;;;;;5204259;28;8784;-68
2022/05/01 00:57:18;;;;;;;;;1.40;1.40;;;;;;;;5188114;28;8854;-68
2022/05/01 00:59:50;;;;;;;;;2.00;2.00;;;;;;;;5221444;28;9503;-68
2022/05/01 01:02:21;;;;;;;;;4.00;4.00;;;;;;;;5205097;28;8835;-68
2022/05/01 01:04:53;;;;;;;;;5.20;5.00;;;;;;;;5188472;28;8787;-68
2022/05/01 01:07:27;;;;;;;;;1.00;1.00;;;;;;;;5204765;28;8764;-68
2022/05/01 01:10:17;;;;;;;;;6.40;6.40;;;;;;;;5224250;28;8805;-69
2022/05/01 01:12:54;;;;;;;;;5.00;5.00;;;;;;;;5225568;28;8808;-68
2022/05/01 01:15:30;;;;;;;;;5.40;5.40;;;;;;;;5223592;28;8893;-68
2022/05/01 01:18:01;;;;;;;;;4.20;4.20;;;;;;;;5208574;28;9489;-68
2022/05/01 01:20:32;;;;;;;;;5.00;5.00;;;;;;;;5225043;28;8835;-68
2022/05/01 01:23:03;;;;;;;;;2.00;2.00;;;;;;;;5208397;28;11493;-68
2022/05/01 01:25:34;;;;;;;;;2.40;2.40;;;;;;;;5208514;28;8774;-68
2022/05/01 01:28:25;;;;;;;;;1.60;1.60;;;;;;;;5221772;28;9665;-68
2022/05/01 01:34:09;;;;;;;;;1.60;1.60;;;;;;;;5185357;28;8832;-68
2022/05/01 01:36:41;;;;;;;;;1.00;1.00;;;;;;;;5170224;28;8777;-67
2022/05/01 01:39:12;;;;;;;;;1.40;1.40;;;;;;;;5195153;28;8854;-68
2022/05/01 01:41:44;;;;;;;;;1.00;1.00;;;;;;;;5187825;28;8824;-68
2022/05/01 01:44:16;;;;;;;;;2.80;2.80;;;;;;;;5204090;28;8873;-68
2022/05/01 01:46:47;;;;;;;;;5.00;5.00;;;;;;;;5204326;28;8873;-68
2022/05/01 01:49:19;;;;;;;;;5.20;5.20;;;;;;;;5205354;28;8792;-68
2022/05/01 01:51:50;;;;;;;;;19.40;18.60;;;;;;;;5218360;28;9614;-68
2022/05/01 01:54:21;;;;;;;;;41.40;36.60;;;;;;;;5220643;28;8814;-69
2022/05/01 01:57:10;;;;;;;;;15.20;12.60;;;;;;;;5223261;28;8801;-67
2022/05/01 01:59:41;;;;;;;;;35.60;33.40;;;;;;;;5207898;28;8859;-68
2022/05/01 02:02:32;;;;;;;;;31.80;28.40;;;;;;;;5224913;28;8810;-67
2022/05/01 02:05:03;;;;;;;;;75.80;60.20;;;;;;;;5224563;28;9583;-67
2022/05/01 02:07:34;;;;;;;;;53.20;42.00;;;;;;;;5223466;28;8789;-68
2022/05/01 02:10:06;;;;;;;;;85.80;63.40;;;;;;;;5223217;28;8825;-67
2022/05/01 02:12:37;;;;;;;;;30.40;28.40;;;;;;;;5227971;28;8815;-68
2022/05/01 02:15:09;;;;;;;;;98.50;74.75;;;;;;;;5245672;28;9548;-68
2022/05/01 02:17:59;;;;;;;;;15.60;15.00;;;;;;;;5245186;28;8872;-67
2022/05/01 02:23:22;;;;;;;;;16.00;16.00;;;;;;;;5245927;28;8791;-67
2022/05/01 02:25:53;;;;;;;;;10.20;10.20;;;;;;;;5242278;28;8803;-67
2022/05/01 02:28:26;;;;;;;;;2.80;2.80;;;;;;;;5202984;28;8921;-67
2022/05/01 02:30:57;;;;;;;;;15.00;15.00;;;;;;;;5214399;28;8825;-67
2022/05/01 02:33:29;;;;;;;;;15.60;14.40;;;;;;;;5223504;28;8802;-68
2022/05/01 02:35:59;;;;;;;;;8.25;8.25;;;;;;;;5223947;28;8778;-68
2022/05/01 02:38:30;;;;;;;;;5.80;5.80;;;;;;;;5224388;28;9563;-67
2022/05/01 02:41:02;;;;;;;;;8.00;8.00;;;;;;;;5225093;28;8817;-68
2022/05/01 02:43:33;;;;;;;;;5.60;5.60;;;;;;;;5225309;28;8836;-68
2022/05/01 02:46:04;;;;;;;;;17.25;17.25;;;;;;;;5176376;28;8792;-68
2022/05/01 02:48:35;;;;;;;;;16.75;16.25;;;;;;;;5222925;28;10191;-67
2022/05/01 02:51:07;;;;;;;;;11.80;11.80;;;;;;;;5207040;28;8814;-67
2022/05/01 02:53:38;;;;;;;;;15.40;15.40;;;;;;;;5223682;28;8778;-68
2022/05/01 02:56:09;;;;;;;;;5.20;5.20;;;;;;;;5223897;28;8800;-67
2022/05/01 02:58:50;;;;;;;;;3.60;3.60;;;;;;;;5223824;28;9623;-69
2022/05/01 03:01:40;;;;;;;;;12.80;12.80;;;;;;;;5224167;28;8857;-66
2022/05/01 03:04:11;;;;;;;;;14.75;14.75;;;;;;;;5223129;28;8812;-66
2022/05/01 03:06:42;;;;;;;;;17.40;17.40;;;;;;;;5224536;28;10336;-67
2022/05/01 03:09:13;;;;;;;;;7.50;7.50;;;;;;;;5222172;28;9500;-67
2022/05/01 03:11:44;;;;;;;;;1.00;1.00;;;;;;;;5241133;28;11473;-66
2022/05/01 03:14:15;;;;;;;;;5.75;5.75;;;;;;;;5244203;28;8865;-67
2022/05/01 03:16:46;;;;;;;;;24.60;22.60;;;;;;;;5244126;28;11377;-66
2022/05/01 03:22:15;;;;;;;;;13.80;13.60;;;;;;;;5249589;28;8993;-67
2022/05/01 03:24:47;;;;;;;;;16.20;15.80;;;;;;;;5209278;28;8811;-66
2022/05/01 03:27:18;;;;;;;;;11.00;11.00;;;;;;;;5222246;28;8774;-67
2022/05/01 03:30:16;;;;;;;;;4.40;4.40;;;;;;;;5213182;28;9687;-67
2022/05/01 03:32:48;;;;;;;;;10.00;10.00;;;;;;;;5194388;28;8766;-67
2022/05/01 03:35:19;;;;;;;;;14.20;14.20;;;;;;;;5228009;28;8782;-67
2022/05/01 03:37:50;;;;;;;;;15.25;15.25;;;;;;;;5226640;28;8835;-68
2022/05/01 03:40:22;;;;;;;;;10.00;10.00;;;;;;;;5226127;28;8928;-67
2022/05/01 03:42:54;;;;;;;;;3.20;2.00;;;;;;;;5209186;28;8797;-66
2022/05/01 03:45:43;;;;;;;;;5.40;5.40;;;;;;;;5226358;28;8833;-66
2022/05/01 03:48:14;;;;;;;;;5.50;5.50;;;;;;;;5226783;28;8797;-66
2022/05/01 03:50:46;;;;;;;;;1.80;1.80;;;;;;;;5210142;28;10562;-66
2022/05/01 03:53:17;;;;;;;;;8.00;8.00;;;;;;;;5226540;28;8774;-66
2022/05/01 03:55:48;;;;;;;;;5.00;5.00;;;;;;;;5227658;28;11570;-66
2022/05/01 03:58:20;;;;;;;;;3.80;3.80;;;;;;;;5227731;28;8777;-66
2022/05/01 04:00:51;;;;;;;;;18.00;16.80;;;;;;;;5227192;28;9546;-67
2022/05/01 04:03:23;;;;;;;;;6.60;6.60;;;;;;;;5221054;28;8788;-67
2022/05/01 04:05:55;;;;;;;;;15.60;15.00;;;;;;;;5189933;28;8783;-66
2022/05/01 04:08:26;;;;;;;;;27.60;23.80;;;;;;;;5207874;28;9496;-67
2022/05/01 04:10:57;;;;;;;;;14.75;13.75;;;;;;;;5227248;28;8783;-66
2022/05/01 04:13:28;;;;;;;;;4.60;4.60;;;;;;;;5248012;28;9199;-67
2022/05/01 04:16:00;;;;;;;;;2.00;2.00;;;;;;;;5247406;28;8807;-66
2022/05/01 04:18:50;;;;;;;;;2.00;2.00;;;;;;;;5209959;28;8797;-68
2022/05/01 04:21:21;;;;;;;;;1.40;1.40;;;;;;;;5206662;28;8808;-67
2022/05/01 04:23:53;;;;;;;;;13.20;13.00;;;;;;;;5205436;28;8896;-67
2022/05/01 04:26:24;;;;;;;;;27.60;24.60;;;;;;;;5189095;28;8816;-68
2022/05/01 04:31:45;;;;;;;;;42.60;37.60;;;;;;;;5205623;28;9491;-68
2022/05/01 04:34:35;;;;;;;;;30.20;27.40;;;;;;;;5206498;28;8776;-67
2022/05/01 04:37:06;;;;;;;;;22.80;20.20;;;;;;;;5188883;28;8801;-80
2022/05/01 04:39:37;;;;;;;;;15.80;14.80;;;;;;;;5205252;28;8815;-77
2022/05/01 04:42:27;;;;;;;;;5.40;5.40;;;;;;;;5213527;28;8951;-68
2022/05/01 04:44:58;;;;;;;;;9.80;9.40;;;;;;;;5192180;28;8809;-67
2022/05/01 04:51:19;;;;;;;;;4.60;4.60;;;;;;;;5206170;28;8814;-67
2022/05/01 04:53:50;;;;;;;;;0.80;0.80;;;;;;;;5205862;28;9524;-67
2022/05/01 04:59:10;;;;;;;;;3.80;3.80;;;;;;;;5208224;28;8820;-69
2022/05/01 05:01:41;;;;;;;;;2.80;2.80;;;;;;;;5207435;28;8898;-68
2022/05/01 05:04:12;;;;;;;;;1.00;1.00;;;;;;;;5225019;28;8889;-67
2022/05/01 05:06:43;;;;;;;;;0.00;0.00;;;;;;;;5198543;28;8816;-69
2022/05/01 05:12:05;;;;;;;;;2.20;2.20;;;;;;;;5241779;28;8798;-67
2022/05/01 05:14:59;;;;;;;;;1.60;1.60;;;;;;;;5245306;28;8790;-70
2022/05/01 05:17:33;;;;;;;;;1.00;1.00;;;;;;;;5241764;28;8802;-67
2022/05/01 05:20:06;;;;;;;;;0.00;0.00;;;;;;;;5213712;28;8829;-69
2022/05/01 05:22:55;;;;;;;;;0.00;0.00;;;;;;;;5188476;28;8831;-68
2022/05/01 05:25:26;;;;;;;;;0.20;0.20;;;;;;;;5202701;28;8820;-67
2022/05/01 05:27:58;;;;;;;;;0.00;0.00;;;;;;;;5186067;28;9535;-67
2022/05/01 05:30:29;;;;;;;;;5.40;5.40;;;;;;;;5202437;28;8804;-68
2022/05/01 05:33:00;;;;;;;;;2.60;2.60;;;;;;;;5204426;28;8854;-68
2022/05/01 05:35:31;;;;;;;;;1.40;1.40;;;;;;;;5211957;28;8829;-68
2022/05/01 05:38:02;;;;;;;;;0.40;0.40;;;;;;;;5217545;28;8824;-67
2022/05/01 05:40:33;;;;;;;;;1.00;1.00;;;;;;;;5217413;28;8801;-67
2022/05/01 05:43:04;;;;;;;;;0.00;0.00;;;;;;;;5203417;28;8853;-68
2022/05/01 05:45:36;;;;;;;;;0.00;0.00;;;;;;;;5223440;28;8817;-67
2022/05/01 05:48:08;;;;;;;;;0.00;0.00;;;;;;;;5196871;28;8816;-67
2022/05/01 05:50:39;;;;;;;;;0.00;0.00;;;;;;;;5202636;28;8792;-67
2022/05/01 05:53:28;;;;;;;;;0.80;0.80;;;;;;;;5204457;28;8796;-67
2022/05/01 05:56:00;;;;;;;;;0.00;0.00;;;;;;;;5186452;28;8838;-68
2022/05/01 05:58:31;;;;;;;;;3.00;3.00;;;;;;;;5202006;28;8800;-68
2022/05/01 06:01:02;;;;;;;;;22.40;22.40;;;;;;;;5202157;28;8790;-70
2022/05/01 06:03:33;;;;;;;;;1.00;1.00;;;;;;;;5229103;28;8825;-68
2022/05/01 06:06:23;;;;;;;;;5.60;5.60;;;;;;;;5243989;28;8779;-70
2022/05/01 06:09:13;;;;;;;;;0.60;0.60;;;;;;;;5220246;28;9561;-67
2022/05/01 06:11:43;;;;;;;;;2.20;2.20;;;;;;;;5218195;28;9563;-66
2022/05/01 06:14:14;;;;;;;;;3.00;3.00;;;;;;;;5203191;28;8832;-66
2022/05/01 06:17:05;;;;;;;;;0.00;0.00;;;;;;;;5223904;28;8950;-66
2022/05/01 06:19:36;;;;;;;;;0.00;0.00;;;;;;;;5223863;28;8789;-66
2022/05/01 06:22:09;;;;;;;;;1.00;1.00;;;;;;;;5225412;28;8840;-66
2022/05/01 06:24:40;;;;;;;;;1.00;1.00;;;;;;;;5225265;28;9825;-66
2022/05/01 06:27:11;;;;;;;;;2.50;2.50;;;;;;;;5207868;28;8777;-66
2022/05/01 06:29:42;;;;;;;;;1.00;1.00;;;;;;;;5223926;28;8828;-66
2022/05/01 06:32:19;;;;;;;;;59.00;46.75;;;;;;;;5224010;28;8810;-66
2022/05/01 06:34:51;;;;;;;;;6.00;6.00;;;;;;;;5207661;28;9564;-66
2022/05/01 06:37:22;;;;;;;;;65.60;47.00;;;;;;;;5225165;28;8801;-66
2022/05/01 06:39:53;;;;;;;;;29.25;27.00;;;;;;;;5225689;28;8835;-66
2022/05/01 06:42:24;;;;;;;;;17.25;16.75;;;;;;;;5223862;28;8928;-66
2022/05/01 06:44:54;;;;;;;;;2.75;2.75;;;;;;;;5225114;28;11640;-66
2022/05/01 06:47:25;;;;;;;;;0.00;0.00;;;;;;;;5225333;28;8781;-66
2022/05/01 06:49:56;;;;;;;;;1.25;1.25;;;;;;;;5223749;28;11418;-66
2022/05/01 06:52:27;;;;;;;;;0.00;0.00;;;;;;;;5207700;28;8820;-66
2022/05/01 06:54:59;;;;;;;;;1.40;1.40;;;;;;;;5226781;28;11508;-66
2022/05/01 06:57:49;;;;;;;;;2.80;2.80;;;;;;;;5228988;28;8794;-66
2022/05/01 07:00:20;;;;;;;;;1.00;1.00;;;;;;;;5227850;28;8778;-66
2022/05/01 07:02:53;;;;;;;;;1.00;1.00;;;;;;;;5227660;28;8899;-66
2022/05/01 07:05:24;;;;;;;;;11.20;11.20;;;;;;;;5228078;28;8854;-66
2022/05/01 07:07:56;;;;;;;;;4.60;4.60;;;;;;;;5212298;28;8777;-66
2022/05/01 07:10:27;;;;;;;;;2.00;2.00;;;;;;;;5227605;28;8786;-66
2022/05/01 07:12:58;;;;;;;;;0.00;0.00;;;;;;;;5229564;28;8770;-66
2022/05/01 07:15:29;;;;;;;;;6.00;6.00;;;;;;;;5228611;28;8797;-66
2022/05/01 07:18:00;;;;;;;;;14.20;14.20;;;;;;;;5227670;28;9512;-66
2022/05/01 07:20:34;;;;;;;;;24.60;23.40;;;;;;;;5228792;28;8794;-66
2022/05/01 07:23:06;;;;;;;;;35.40;34.00;;;;;;;;5227192;28;9516;-66
2022/05/01 07:25:37;;;;;;;;;12.80;12.20;;;;;;;;5227198;28;9457;-66
2022/05/01 07:28:08;;;;;;;;;9.25;9.25;;;;;;;;5228373;28;8794;-66
2022/05/01 07:30:58;;;;;;;;;5.20;5.20;;;;;;;;5228256;28;11114;-66
2022/05/01 07:33:29;;;;;;;;;9.20;9.20;;;;;;;;5228287;28;8790;-66
2022/05/01 07:36:01;;;;;;;;;14.60;14.60;;;;;;;;5228106;28;8750;-66
2022/05/01 07:38:32;;;;;;;;;17.60;17.00;;;;;;;;5228227;28;8793;-66
2022/05/01 07:41:04;;;;;;;;;1.00;1.00;;;;;;;;5227119;28;8824;-66
2022/05/01 07:43:36;;;;;;;;;30.40;25.40;;;;;;;;5226962;28;8796;-66
2022/05/01 07:46:07;;;;;;;;;62.40;39.80;;;;;;;;5227987;28;8793;-66
2022/05/01 07:48:38;;;;;;;;;34.00;32.75;;;;;;;;5227979;28;8849;-66
2022/05/01 07:51:10;;;;;;;;;47.40;39.60;;;;;;;;5210096;28;11575;-66
2022/05/01 07:53:41;;;;;;;;;8.50;8.50;;;;;;;;5228236;28;8812;-66
2022/05/01 07:56:11;;;;;;;;;2.00;2.00;;;;;;;;5227826;28;11428;-66
2022/05/01 07:58:43;;;;;;;;;18.60;17.20;;;;;;;;5227469;28;8793;-66
2022/05/01 08:01:14;;;;;;;;;14.20;14.20;;;;;;;;5226602;28;8857;-66
2022/05/01 08:04:46;;;;;;;;;3.75;3.75;;;;;;;;5226691;28;8798;-66
2022/05/01 08:06:45;;;;;;;;;7.00;7.00;;;;;;;;5218293;28;11567;-66
2022/05/01 08:09:16;;;;;;;;;6.00;6.00;;;;;;;;5227789;28;8766;-66
2022/05/01 08:11:47;;;;;;;;;15.75;14.50;;;;;;;;5227422;28;8794;-66
2022/05/01 08:14:18;;;;;;;;;3.00;3.00;;;;;;;;5226253;28;8798;-66
2022/05/01 08:17:08;;;;;;;;;1.00;1.00;;;;;;;;5226629;28;9951;-66
2022/05/01 08:22:46;;;;;;;;;0.80;0.80;;;;;;;;5227336;28;8809;-66
2022/05/01 08:25:37;;;;;;;;;28.60;23.80;;;;;;;;5227342;28;9539;-66
2022/05/01 08:28:09;;;;;;;;;19.80;19.40;;;;;;;;5192933;28;8817;-66
2022/05/01 08:30:58;;;;;;;;;2.60;2.60;;;;;;;;5227574;28;8790;-66
2022/05/01 08:33:29;;;;;;;;;0.00;0.00;;;;;;;;5209571;28;8800;-65
2022/05/01 08:36:02;;;;;;;;;2.00;2.00;;;;;;;;5225756;28;8793;-66
2022/05/01 08:38:36;;;;;;;;;13.00;13.00;;;;;;;;5193165;28;8945;-66
2022/05/01 08:41:07;;;;;;;;;24.40;24.40;;;;;;;;5193056;28;8786;-65
2022/05/01 08:43:39;;;;;;;;;3.80;3.80;;;;;;;;5225790;28;8823;-65
2022/05/01 08:46:13;;;;;;;;;6.40;6.40;;;;;;;;5209152;28;8839;-66
2022/05/01 08:49:06;;;;;;;;;4.60;4.40;;;;;;;;5225655;28;8855;-66
2022/05/01 08:51:38;;;;;;;;;5.20;5.20;;;;;;;;5208999;28;8792;-66
2022/05/01 08:54:28;;;;;;;;;19.80;19.80;;;;;;;;5227086;28;8789;-65
2022/05/01 08:57:00;;;;;;;;;8.20;8.20;;;;;;;;5226686;28;8774;-66
2022/05/01 08:59:32;;;;;;;;;9.60;9.60;;;;;;;;5192476;28;8781;-66
2022/05/01 09:02:03;;;;;;;;;1.00;1.00;;;;;;;;5208787;28;8821;-65
2022/05/01 09:04:36;;;;;;;;;8.40;8.40;;;;;;;;5226656;28;8925;-65
2022/05/01 09:07:26;;;;;;;;;4.00;4.00;;;;;;;;5225684;28;8769;-66
2022/05/01 09:09:57;;;;;;;;;7.40;7.40;;;;;;;;5226403;28;8758;-66
2022/05/01 09:15:30;;;;;;;;;10.00;10.00;;;;;;;;5226542;28;8774;-66
2022/05/01 09:18:06;;;;;;;;;16.80;16.80;;;;;;;;5208390;28;8785;-66
2022/05/01 09:20:42;;;;;;;;;13.40;13.40;;;;;;;;5192271;28;8770;-65
2022/05/01 09:23:13;;;;;;;;;59.60;46.20;;;;;;;;5208730;28;8863;-65
2022/05/01 09:25:44;;;;;;;;;41.50;36.75;;;;;;;;5226092;28;8770;-65
2022/05/01 09:28:33;;;;;;;;;68.80;54.40;;;;;;;;5226437;28;8904;-65
2022/05/01 09:31:04;;;;;;;;;3.00;3.00;;;;;;;;5226080;28;8900;-65
2022/05/01 09:33:35;;;;;;;;;32.75;32.75;;;;;;;;5225949;28;8913;-65
2022/05/01 09:36:08;;;;;;;;;4.75;4.75;;;;;;;;5226139;28;11226;-65
2022/05/01 09:38:39;;;;;;;;;10.00;10.00;;;;;;;;5224525;28;11547;-66
2022/05/01 09:41:14;;;;;;;;;7.60;7.20;;;;;;;;5224660;28;8809;-65
2022/05/01 09:43:46;;;;;;;;;8.60;8.60;;;;;;;;5224799;28;8809;-65
2022/05/01 09:46:20;;;;;;;;;42.60;36.20;;;;;;;;5191600;28;8922;-65
2022/05/01 09:49:02;;;;;;;;;36.00;34.80;;;;;;;;5224458;28;8801;-65
2022/05/01 09:51:46;;;;;;;;;8.00;7.60;;;;;;;;5192277;28;8871;-65
2022/05/01 09:54:19;;;;;;;;;33.60;32.40;;;;;;;;5192365;28;8788;-65
2022/05/01 09:56:50;;;;;;;;;40.80;38.60;;;;;;;;5191379;28;8790;-65
2022/05/01 09:59:22;;;;;;;;;31.80;30.60;;;;;;;;5207647;28;8820;-65
2022/05/01 10:01:56;;;;;;;;;16.80;16.80;;;;;;;;5207567;28;8810;-65
2022/05/01 10:04:28;;;;;;;;;23.20;23.20;;;;;;;;5208028;28;8908;-65
2022/05/01 10:06:59;;;;;;;;;9.40;9.40;;;;;;;;5225522;28;8781;-65
2022/05/01 10:09:33;;;;;;;;;0.20;0.20;;;;;;;;5191588;28;8802;-65
2022/05/01 10:12:06;;;;;;;;;15.00;15.00;;;;;;;;5207895;28;8813;-65
2022/05/01 10:14:37;;;;;;;;;12.00;12.00;;;;;;;;5207695;28;8797;-65
2022/05/01 10:17:08;;;;;;;;;3.00;3.00;;;;;;;;5225362;28;8813;-65
2022/05/01 10:19:39;;;;;;;;;1.00;1.00;;;;;;;;5225646;28;8793;-65
2022/05/01 10:22:10;;;;;;;;;2.50;2.50;;;;;;;;5225390;28;8876;-65
2022/05/01 10:24:41;;;;;;;;;5.20;5.20;;;;;;;;5224049;28;10687;-65
2022/05/01 10:27:34;;;;;;;;;2.75;2.75;;;;;;;;5225516;28;8793;-65
2022/05/01 10:33:26;;;;;;;;;6.80;6.80;;;;;;;;5229779;28;9434;-65
2022/05/01 10:36:00;;;;;;;;;1.20;1.20;;;;;;;;5229762;28;8878;-65
2022/05/01 10:39:13;;;;;;;;;3.00;3.00;;;;;;;;5229638;28;8944;-66
2022/05/01 10:41:45;;;;;;;;;2.80;2.80;;;;;;;;5228567;28;8820;-65
2022/05/01 10:44:25;;;;;;;;;2.00;2.00;;;;;;;;5229652;28;8809;-65
2022/05/01 10:47:25;;;;;;;;;4.00;4.00;;;;;;;;5229556;28;8766;-65
2022/05/01 10:50:04;;;;;;;;;6.80;6.80;;;;;;;;5216278;28;8782;-65
2022/05/01 10:52:55;;;;;;;;;4.00;3.00;;;;;;;;5229227;28;8809;-65
2022/05/01 10:55:26;;;;;;;;;3.00;3.00;;;;;;;;5227908;28;8793;-65
2022/05/01 10:58:16;;;;;;;;;0.25;0.25;;;;;;;;5229964;28;8758;-65
2022/05/01 11:00:47;;;;;;;;;7.00;7.00;;;;;;;;5229277;28;10604;-65
2022/05/01 11:03:23;;;;;;;;;2.00;2.00;;;;;;;;5229307;28;8835;-65
2022/05/01 11:05:57;;;;;;;;;5.20;5.20;;;;;;;;5227827;28;8785;-65
2022/05/01 11:08:46;;;;;;;;;10.20;8.80;;;;;;;;5228990;28;8793;-65
2022/05/01 11:11:19;;;;;;;;;55.60;44.20;;;;;;;;5229143;28;8812;-65
2022/05/01 11:13:53;;;;;;;;;10.40;10.40;;;;;;;;5210975;28;8777;-65
2022/05/01 11:16:44;;;;;;;;;2.00;2.00;;;;;;;;5228694;28;8813;-65
2022/05/01 11:19:15;;;;;;;;;21.40;21.40;;;;;;;;5228313;28;9520;-65
2022/05/01 11:21:49;;;;;;;;;29.00;27.60;;;;;;;;5210676;28;9675;-65
2022/05/01 11:24:39;;;;;;;;;8.00;8.00;;;;;;;;5227515;28;8793;-65
2022/05/01 11:27:10;;;;;;;;;39.00;37.40;;;;;;;;5228999;28;8797;-65
2022/05/01 11:29:59;;;;;;;;;22.25;22.25;;;;;;;;5227490;28;9497;-65
2022/05/01 11:32:42;;;;;;;;;18.60;18.60;;;;;;;;5226370;28;8781;-65
2022/05/01 11:35:13;;;;;;;;;15.80;15.80;;;;;;;;5227089;28;8738;-65
2022/05/01 11:37:59;;;;;;;;;12.40;12.40;;;;;;;;5192864;28;9512;-65
2022/05/01 11:40:30;;;;;;;;;13.80;13.80;;;;;;;;5192715;28;8789;-65
2022/05/01 11:43:14;;;;;;;;;1.50;1.50;;;;;;;;5227232;28;8817;-65
2022/05/01 11:45:46;;;;;;;;;12.40;12.40;;;;;;;;5209030;28;12214;-65
2022/05/01 11:48:20;;;;;;;;;16.00;16.00;;;;;;;;5225693;28;8854;-65
2022/05/01 11:50:52;;;;;;;;;7.60;7.60;;;;;;;;5193073;28;9592;-65
2022/05/01 11:53:27;;;;;;;;;3.60;3.60;;;;;;;;5226895;28;8790;-65
2022/05/01 12:04:45;;;;;;;;;2.20;2.20;;;;;;;;5226545;28;8825;-65
2022/05/01 12:07:20;;;;;;;;;49.80;44.00;;;;;;;;5226727;28;9516;-65
2022/05/01 12:09:51;;;;;;;;;19.00;17.40;;;;;;;;5209030;28;8774;-65
2022/05/01 12:12:31;;;;;;;;;37.20;32.80;;;;;;;;5226600;28;8800;-65
2022/05/01 12:15:04;;;;;;;;;19.00;17.20;;;;;;;;5209085;28;8786;-65
2022/05/01 12:17:39;;;;;;;;;6.40;6.40;;;;;;;;5192337;28;8793;-65
2022/05/01 12:20:10;;;;;;;;;39.80;34.60;;;;;;;;5209099;28;8789;-65
2022/05/01 12:22:43;;;;;;;;;41.60;38.00;;;;;;;;5192162;28;8837;-65
2022/05/01 12:25:15;;;;;;;;;10.00;10.00;;;;;;;;5208480;28;9517;-65
2022/05/01 12:27:47;;;;;;;;;4.00;4.00;;;;;;;;5225524;28;8871;-65
2022/05/01 12:30:34;;;;;;;;;8.20;8.20;;;;;;;;5264427;28;9502;-65
2022/05/01 12:33:05;;;;;;;;;2.40;2.40;;;;;;;;5192574;28;8781;-65
2022/05/01 12:35:55;;;;;;;;;8.80;8.80;;;;;;;;5243339;28;8776;-65
2022/05/01 12:38:27;;;;;;;;;1.40;1.40;;;;;;;;5193195;28;9533;-65
2022/05/01 12:44:03;;;;;;;;;3.00;3.00;;;;;;;;5243467;28;8815;-65
2022/05/01 12:46:34;;;;;;;;;8.00;8.00;;;;;;;;5243834;28;8772;-65
2022/05/01 12:49:05;;;;;;;;;11.00;10.00;;;;;;;;5197046;28;9637;-65
2022/05/01 12:51:41;;;;;;;;;9.00;9.00;;;;;;;;5222500;28;8902;-65
2022/05/01 12:54:17;;;;;;;;;17.40;17.40;;;;;;;;5205016;28;8799;-65
2022/05/01 12:56:48;;;;;;;;;8.80;8.80;;;;;;;;5188644;28;8937;-65
2022/05/01 12:59:26;;;;;;;;;7.60;7.60;;;;;;;;5222561;28;8819;-65
2022/05/01 13:01:58;;;;;;;;;3.40;3.40;;;;;;;;5186617;28;8810;-66
2022/05/01 13:04:30;;;;;;;;;6.40;6.40;;;;;;;;5185376;28;8813;-65
2022/05/01 13:07:02;;;;;;;;;12.80;12.80;;;;;;;;5183662;28;8920;-64
2022/05/01 13:09:48;;;;;;;;;14.00;14.00;;;;;;;;5167641;28;8821;-65
2022/05/01 13:12:29;;;;;;;;;10.20;10.20;;;;;;;;5175365;28;8826;-65
2022/05/01 13:15:20;;;;;;;;;12.60;12.40;;;;;;;;5169983;28;8888;-65
2022/05/01 13:18:01;;;;;;;;;3.00;3.00;;;;;;;;5202042;28;8808;-65
2022/05/01 13:20:32;;;;;;;;;7.80;7.80;;;;;;;;5201271;28;9525;-65
2022/05/01 13:23:03;;;;;;;;;30.50;30.25;;;;;;;;5221865;28;8941;-65
2022/05/01 13:25:34;;;;;;;;;8.60;8.60;;;;;;;;5221794;28;8910;-65
2022/05/01 13:28:05;;;;;;;;;4.50;4.50;;;;;;;;5220843;28;9632;-66
2022/05/01 13:30:36;;;;;;;;;5.00;5.00;;;;;;;;5171803;28;8787;-65
2022/05/01 13:33:07;;;;;;;;;8.00;8.00;;;;;;;;5215299;28;8853;-65
2022/05/01 13:35:57;;;;;;;;;15.20;15.20;;;;;;;;5205793;28;8964;-65
2022/05/01 13:38:28;;;;;;;;;16.80;16.80;;;;;;;;5205444;28;8797;-64
2022/05/01 13:46:59;;;;;;;;;10.60;10.60;;;;;;;;5185626;28;8814;-64
2022/05/01 13:49:30;;;;;;;;;9.00;9.00;;;;;;;;5173445;28;8942;-64
2022/05/01 13:52:02;;;;;;;;;9.60;9.60;;;;;;;;5205602;28;8846;-64
2022/05/01 13:54:34;;;;;;;;;3.60;3.60;;;;;;;;5184249;28;8811;-65
2022/05/01 13:57:08;;;;;;;;;7.60;7.60;;;;;;;;5185655;28;8812;-64
2022/05/01 13:59:47;;;;;;;;;5.00;5.00;;;;;;;;5228098;28;8812;-64
2022/05/01 14:02:18;;;;;;;;;3.00;3.00;;;;;;;;5208427;28;8789;-65
2022/05/01 14:05:08;;;;;;;;;5.00;5.00;;;;;;;;5187046;28;8795;-66
2022/05/01 14:07:39;;;;;;;;;3.40;3.40;;;;;;;;5200581;28;8814;-64
2022/05/01 14:10:10;;;;;;;;;7.20;7.20;;;;;;;;5194956;28;8817;-64
2022/05/01 14:12:41;;;;;;;;;26.40;23.40;;;;;;;;5199126;28;9514;-64
2022/05/01 14:15:12;;;;;;;;;7.25;7.25;;;;;;;;5189780;28;8856;-64
2022/05/01 14:17:43;;;;;;;;;38.75;36.25;;;;;;;;5193389;28;10704;-65
2022/05/01 14:20:33;;;;;;;;;29.20;26.80;;;;;;;;5207006;28;8802;-65
2022/05/01 14:23:07;;;;;;;;;25.25;24.75;;;;;;;;5199892;28;8786;-64
2022/05/01 14:25:38;;;;;;;;;24.80;24.80;;;;;;;;5192000;28;10400;-64
2022/05/01 14:28:09;;;;;;;;;15.00;15.00;;;;;;;;5185560;28;8899;-65
2022/05/01 14:31:10;;;;;;;;;8.20;7.60;;;;;;;;5172461;28;10503;-66
2022/05/01 14:33:45;;;;;;;;;9.60;9.60;;;;;;;;5218200;28;8781;-65
2022/05/01 14:36:18;;;;;;;;;12.20;12.20;;;;;;;;5227100;28;8792;-64
2022/05/01 14:39:04;;;;;;;;;9.60;9.00;;;;;;;;5168434;28;8810;-64
2022/05/01 14:41:39;;;;;;;;;10.00;9.20;;;;;;;;5186394;28;8855;-64
2022/05/01 14:44:11;;;;;;;;;15.80;15.80;;;;;;;;5214518;28;8938;-64
2022/05/01 14:46:49;;;;;;;;;9.00;8.60;;;;;;;;5226986;28;8938;-64
2022/05/01 14:49:32;;;;;;;;;12.80;12.80;;;;;;;;5181337;28;8834;-64
2022/05/01 14:52:05;;;;;;;;;8.20;8.20;;;;;;;;5184906;28;8789;-64
2022/05/01 14:54:37;;;;;;;;;11.60;11.60;;;;;;;;5167959;28;8798;-64
2022/05/01 14:57:12;;;;;;;;;12.00;12.00;;;;;;;;5205841;28;8775;-66
2022/05/01 15:08:30;;;;;;;;;8.80;8.80;;;;;;;;5206009;28;8943;-64
2022/05/01 15:11:01;;;;;;;;;8.40;7.40;;;;;;;;5206059;28;8922;-64
2022/05/01 15:13:32;;;;;;;;;4.25;4.25;;;;;;;;5205903;28;8902;-64
2022/05/01 15:16:03;;;;;;;;;13.20;13.20;;;;;;;;5205630;28;11455;-64
2022/05/01 15:18:43;;;;;;;;;7.00;7.00;;;;;;;;5205833;28;8818;-65
2022/05/01 15:22:20;;;;;;;;;6.00;6.00;;;;;;;;5205859;28;9532;-65
2022/05/01 15:24:24;;;;;;;;;11.00;11.00;;;;;;;;5205914;28;8873;-65
2022/05/01 15:27:02;;;;;;;;;3.00;3.00;;;;;;;;5170370;28;8815;-64
2022/05/01 15:29:35;;;;;;;;;10.80;10.80;;;;;;;;5194990;28;9655;-64
2022/05/01 15:32:09;;;;;;;;;9.40;9.40;;;;;;;;5186227;28;8801;-70
2022/05/01 15:34:54;;;;;;;;;7.40;7.20;;;;;;;;5152977;28;8836;-64
2022/05/01 15:37:32;;;;;;;;;10.80;10.80;;;;;;;;5185949;28;8808;-64
2022/05/01 15:40:05;;;;;;;;;12.00;11.00;;;;;;;;5226405;28;8894;-64
2022/05/01 15:42:38;;;;;;;;;9.20;9.20;;;;;;;;5224228;28;8800;-65
2022/05/01 15:45:10;;;;;;;;;6.80;5.80;;;;;;;;5187539;28;8819;-65
2022/05/01 15:47:41;;;;;;;;;7.60;7.20;;;;;;;;5187849;28;8897;-65
2022/05/01 15:55:51;;;;;;;;;14.60;14.60;;;;;;;;5225934;28;9535;-65
2022/05/01 15:58:23;;;;;;;;;8.80;8.80;;;;;;;;5225475;28;9503;-65
2022/05/01 16:01:12;;;;;;;;;10.00;10.00;;;;;;;;5198731;28;8821;-65
2022/05/01 16:04:02;;;;;;;;;8.60;8.60;;;;;;;;5198556;28;8823;-65
2022/05/01 16:06:34;;;;;;;;;8.75;8.75;;;;;;;;5204983;28;8795;-65
2022/05/01 16:09:08;;;;;;;;;4.40;4.00;;;;;;;;5205187;28;8823;-66
2022/05/01 16:11:39;;;;;;;;;12.80;12.80;;;;;;;;5170407;28;8843;-65
2022/05/01 16:14:18;;;;;;;;;36.50;34.50;;;;;;;;5186303;28;8849;-66
2022/05/01 16:17:00;;;;;;;;;29.20;29.20;;;;;;;;5204648;28;8803;-64
2022/05/01 16:19:32;;;;;;;;;29.60;27.40;;;;;;;;5170807;28;8799;-64
2022/05/01 16:22:12;;;;;;;;;26.00;25.00;;;;;;;;5203954;28;8795;-64
2022/05/01 16:24:45;;;;;;;;;18.40;18.00;;;;;;;;5168666;28;8811;-65
2022/05/01 16:27:29;;;;;;;;;33.60;32.60;;;;;;;;5198016;28;9554;-65
2022/05/01 16:30:08;;;;;;;;;34.20;33.20;;;;;;;;5171260;28;8853;-64
2022/05/01 16:32:43;;;;;;;;;31.40;30.60;;;;;;;;5207453;28;9555;-64
2022/05/01 16:35:34;;;;;;;;;34.00;33.40;;;;;;;;5225584;28;8792;-64
2022/05/01 16:38:07;;;;;;;;;28.60;25.80;;;;;;;;5225407;28;8788;-64